Terminal Aerodrome Forecast
Issued by NWS

Home | Current Version | Previous Version | Text Only | Print | Product List | Glossary On
Versions: 1 2 3 4 5 6 7 8 9 10 11 12 13 14 15
680
FTUS42 KGSP 252320
TAFAND
TAF
KAND 252320Z 2600/2624 VRB03KT P6SM FEW050 SCT250
     FM260600 00000KT P6SM FEW250
      TEMPO 2610/2613 4SM BR SCT003
     FM261500 07003KT P6SM FEW045
     FM262100 13006KT P6SM SCT045=

USA.gov is the U.S. government's official web portal to all federal, state and local government web resources and services.